Terminal Aerodrome Forecast
Issued by NWS Blacksburg, VA

Current Version | Previous Version | Graphics & Text | Print | Product List | Glossary On
Versions: 1 2 3 4 5 6 7 8 9 10 11 12 13 14 15 16 17 18 19 20 21 22 23 24 25 26 27 28 29 30 31 32 33 34 35 36 37 38
000
FTUS41 KRNK 170335 AAA
TAFBLF
TAF AMD
KBLF 170335Z 1704/1724 28013G17KT P6SM -DZ BKN008 OVC014
      TEMPO 1704/1706 5SM -SHRA SCT008 OVC014
     FM171500 29013G23KT P6SM SCT012 OVC025
     FM172000 29010KT P6SM SCT025 SCT250=

USA.gov is the U.S. government's official web portal to all federal, state and local government web resources and services.